Time;durP1;ratioP1;P1;durP2;ratioP2;P2;SDS_P1;SDS_P2;PMS_P1;PMS_P2;Temp;Humidity;BMP_temperature;BMP_pressure;BME280_temperature;BME280_humidity;BME280_pressure;Samples;Min_cycle;Max_cycle;Signal;HPM_P1;HPM_P2
2022/04/08 00:02:18;;;;;;;6.37;1.23;;;9.70;83.30;;;;;;5047188;28;20508;-48
2022/04/08 00:04:46;;;;;;;2.90;1.00;;;9.80;82.70;;;;;;5042519;28;20934;-47
2022/04/08 00:07:13;;;;;;;10.07;2.40;;;9.80;83.20;;;;;;5042876;28;20806;-48
2022/04/08 00:09:40;;;;;;;5.70;1.13;;;9.90;83.10;;;;;;5027243;28;20505;-48
2022/04/08 00:12:09;;;;;;;7.37;1.73;;;9.80;82.80;;;;;;5037891;28;20542;-47
2022/04/08 00:14:36;;;;;;;2.97;1.23;;;9.80;82.70;;;;;;5042369;28;20491;-48
2022/04/08 00:17:04;;;;;;;12.63;1.90;;;9.90;82.70;;;;;;5045391;28;20541;-48
2022/04/08 00:19:31;;;;;;;6.13;2.30;;;9.90;82.80;;;;;;5043636;28;20948;-48
2022/04/08 00:22:01;;;;;;;10.83;2.40;;;9.90;83.10;;;;;;5046169;28;20510;-48
2022/04/08 00:24:27;;;;;;;3.20;1.00;;;9.90;83.30;;;;;;5045783;28;20507;-48
2022/04/08 00:26:54;;;;;;;3.43;1.50;;;9.90;83.30;;;;;;5043579;28;20522;-47
2022/04/08 00:29:21;;;;;;;2.70;1.17;;;9.90;83.30;;;;;;5046628;28;20523;-55
2022/04/08 00:31:50;;;;;;;5.87;2.10;;;9.90;83.50;;;;;;5046426;28;20480;-48
2022/04/08 00:34:16;;;;;;;3.70;1.10;;;9.90;83.50;;;;;;5044625;28;20985;-48
2022/04/08 00:36:43;;;;;;;3.40;1.20;;;9.80;83.60;;;;;;5044836;28;21191;-49
2022/04/08 00:39:13;;;;;;;3.50;1.13;;;9.80;84.20;;;;;;5053244;28;20479;-48
2022/04/08 00:41:39;;;;;;;3.50;1.30;;;9.70;84.50;;;;;;5039441;28;20483;-47
2022/04/08 00:44:07;;;;;;;4.40;0.87;;;9.70;84.80;;;;;;5045649;28;20481;-49
2022/04/08 00:46:37;;;;;;;5.73;1.40;;;9.40;85.40;;;;;;5057971;28;20551;-49
2022/04/08 00:49:04;;;;;;;5.63;1.80;;;9.40;85.60;;;;;;5056648;28;20837;-48
2022/04/08 00:51:32;;;;;;;9.53;2.40;;;9.30;85.90;;;;;;5045517;28;20484;-49
2022/04/08 00:53:59;;;;;;;4.77;1.23;;;9.40;86.20;;;;;;5050779;28;20506;-48
2022/04/08 00:56:30;;;;;;;2.20;1.47;;;9.40;86.10;;;;;;5045347;28;20568;-49
2022/04/08 00:58:57;;;;;;;6.30;1.90;;;9.40;85.90;;;;;;5055461;28;21002;-48
2022/04/08 01:01:24;;;;;;;5.27;1.80;;;9.30;85.30;;;;;;5044307;28;20485;-50
2022/04/08 01:03:52;;;;;;;6.07;1.73;;;9.40;85.50;;;;;;5044957;28;20555;-47
2022/04/08 01:06:19;;;;;;;8.93;2.37;;;9.40;85.60;;;;;;5026895;28;20473;-47
2022/04/08 01:08:47;;;;;;;2.70;1.30;;;9.40;85.60;;;;;;5025440;28;20809;-47
2022/04/08 01:11:14;;;;;;;3.00;1.40;;;9.50;86.00;;;;;;5044241;28;20496;-49
2022/04/08 01:13:42;;;;;;;5.70;2.53;;;9.40;86.10;;;;;;5022186;28;21055;-47
2022/04/08 01:16:09;;;;;;;5.00;1.53;;;9.30;86.10;;;;;;5022354;28;20500;-48
2022/04/08 01:18:37;;;;;;;2.80;1.47;;;9.30;86.60;;;;;;5041267;28;20540;-47
2022/04/08 01:21:05;;;;;;;7.40;1.47;;;9.30;86.80;;;;;;5023173;28;21015;-47
2022/04/08 01:23:33;;;;;;;3.30;1.00;;;9.30;87.30;;;;;;5021259;28;20486;-47
2022/04/08 01:26:04;;;;;;;5.93;2.30;;;9.30;87.40;;;;;;5023144;28;20932;-47
2022/04/08 01:28:31;;;;;;;3.50;1.10;;;9.20;87.70;;;;;;5036979;28;20566;-47
2022/04/08 01:30:57;;;;;;;2.90;1.13;;;9.20;87.40;;;;;;5031049;28;20478;-48
2022/04/08 01:33:24;;;;;;;5.93;1.63;;;9.20;87.80;;;;;;5023043;28;20481;-48
2022/04/08 01:35:51;;;;;;;10.03;1.90;;;9.10;88.10;;;;;;5041694;28;20474;-47
2022/04/08 01:38:18;;;;;;;4.10;1.87;;;9.10;88.40;;;;;;5028647;28;20472;-46
2022/04/08 01:40:44;;;;;;;5.70;0.90;;;9.00;88.90;;;;;;5030377;28;20626;-47
2022/04/08 01:43:12;;;;;;;7.93;1.37;;;9.00;89.20;;;;;;5015536;28;20487;-47
2022/04/08 01:45:39;;;;;;;11.80;1.93;;;9.00;89.60;;;;;;5040845;28;20495;-47
2022/04/08 01:48:06;;;;;;;11.13;1.53;;;8.90;89.60;;;;;;5059977;28;20585;-46
2022/04/08 01:50:33;;;;;;;4.43;1.30;;;8.80;90.00;;;;;;5043031;28;20491;-47
2022/04/08 01:53:00;;;;;;;7.27;1.50;;;8.80;89.90;;;;;;5045796;28;20823;-48
2022/04/08 01:55:26;;;;;;;3.30;1.30;;;8.80;89.90;;;;;;5023225;28;20478;-48
2022/04/08 01:57:53;;;;;;;4.90;1.43;;;8.90;90.10;;;;;;5035569;28;20537;-47
2022/04/08 02:00:21;;;;;;;1.90;1.20;;;8.80;90.10;;;;;;5040923;28;20509;-48
2022/04/08 02:02:48;;;;;;;4.33;2.10;;;8.80;90.10;;;;;;5034195;28;20480;-47
2022/04/08 02:05:15;;;;;;;11.60;2.50;;;8.90;90.30;;;;;;5038276;28;20498;-47
2022/04/08 02:07:42;;;;;;;3.07;1.10;;;8.80;90.20;;;;;;5033057;28;20484;-49
2022/04/08 02:10:10;;;;;;;5.13;1.20;;;8.80;90.20;;;;;;5047897;28;20887;-46
2022/04/08 02:12:36;;;;;;;5.10;1.60;;;8.80;90.40;;;;;;5047953;28;21207;-46
2022/04/08 02:15:04;;;;;;;8.20;1.60;;;8.70;90.30;;;;;;5040478;28;21058;-47
2022/04/08 02:17:32;;;;;;;12.70;1.70;;;8.60;90.40;;;;;;5042228;28;20503;-47
2022/04/08 02:19:59;;;;;;;11.13;1.73;;;8.60;90.60;;;;;;5031207;28;20492;-48
2022/04/08 02:22:29;;;;;;;3.70;1.83;;;8.50;90.70;;;;;;5062735;28;20924;-47
2022/04/08 02:24:56;;;;;;;3.43;1.67;;;8.50;90.70;;;;;;5061320;28;20556;-46
2022/04/08 02:27:23;;;;;;;2.43;1.53;;;8.50;90.70;;;;;;5031485;28;20493;-49
2022/04/08 02:29:50;;;;;;;5.60;1.20;;;8.50;90.80;;;;;;5023188;28;20487;-46
2022/04/08 02:32:17;;;;;;;7.67;1.43;;;8.40;90.90;;;;;;5020215;28;20490;-46
2022/04/08 02:34:45;;;;;;;7.37;2.17;;;8.40;90.90;;;;;;5022827;28;20500;-46
2022/04/08 02:37:12;;;;;;;7.73;2.17;;;8.40;90.90;;;;;;5022485;28;20485;-47
2022/04/08 02:39:39;;;;;;;7.33;1.27;;;8.40;91.00;;;;;;5023577;28;20514;-47
2022/04/08 02:42:06;;;;;;;2.00;1.10;;;8.30;91.00;;;;;;5021310;28;20511;-48
2022/04/08 02:44:33;;;;;;;4.90;1.00;;;8.30;91.10;;;;;;5020741;28;20488;-48
2022/04/08 02:47:00;;;;;;;4.77;1.60;;;;;;;;;;5022460;28;20475;-49
2022/04/08 02:49:27;;;;;;;5.33;1.90;;;8.30;91.10;;;;;;5031400;28;20476;-47
2022/04/08 02:51:55;;;;;;;1.80;0.93;;;8.20;91.00;;;;;;5019048;28;20488;-47
2022/04/08 02:54:22;;;;;;;10.03;1.43;;;8.30;91.10;;;;;;5029493;28;21337;-48
2022/04/08 02:56:49;;;;;;;6.30;1.63;;;8.30;91.10;;;;;;5047199;28;20492;-47
2022/04/08 02:59:15;;;;;;;2.47;1.70;;;8.30;91.10;;;;;;5045374;28;20482;-47
2022/04/08 03:01:42;;;;;;;3.60;1.20;;;;;;;;;;5028720;28;20488;-48
2022/04/08 03:04:09;;;;;;;6.43;1.83;;;8.20;91.20;;;;;;5018942;28;20495;-47
2022/04/08 03:06:37;;;;;;;5.33;1.77;;;8.20;91.20;;;;;;5019567;28;20488;-48
2022/04/08 03:09:05;;;;;;;3.87;0.90;;;8.20;91.20;;;;;;5022131;28;20556;-48
2022/04/08 03:11:33;;;;;;;5.03;1.63;;;8.20;91.20;;;;;;5022198;28;21146;-48
2022/04/08 03:14:02;;;;;;;6.50;1.30;;;8.10;91.20;;;;;;5034014;28;21808;-47
2022/04/08 03:16:29;;;;;;;2.77;1.27;;;8.10;91.30;;;;;;5037399;28;20483;-47
2022/04/08 03:18:55;;;;;;;5.60;1.20;;;8.10;91.40;;;;;;5021528;28;21244;-47
2022/04/08 03:21:22;;;;;;;5.70;1.70;;;8.10;91.50;;;;;;5041704;28;20471;-46
2022/04/08 03:23:49;;;;;;;8.40;2.00;;;8.10;91.50;;;;;;5041803;28;20490;-46
2022/04/08 03:26:17;;;;;;;5.83;2.37;;;8.10;91.50;;;;;;5031383;28;20486;-47
2022/04/08 03:28:44;;;;;;;7.33;2.03;;;8.10;91.50;;;;;;5040912;28;20479;-46
2022/04/08 03:31:11;;;;;;;6.60;2.43;;;8.10;91.50;;;;;;5040998;28;20475;-47
2022/04/08 03:33:38;;;;;;;4.10;1.93;;;8.10;91.50;;;;;;5041842;28;20483;-48
2022/04/08 03:36:06;;;;;;;3.80;1.70;;;8.10;91.60;;;;;;5041073;28;20481;-47
2022/04/08 03:38:33;;;;;;;19.87;4.27;;;8.10;91.60;;;;;;5030434;28;20484;-47
2022/04/08 03:41:00;;;;;;;9.80;1.50;;;8.10;91.70;;;;;;5022075;28;20525;-47
2022/04/08 03:43:28;;;;;;;8.70;2.00;;;8.10;91.70;;;;;;5020790;28;20479;-46
2022/04/08 03:45:55;;;;;;;5.23;1.80;;;8.10;91.80;;;;;;5020457;28;20472;-47
2022/04/08 03:48:22;;;;;;;6.97;2.17;;;8.00;91.90;;;;;;5019533;28;20488;-47
2022/04/08 03:50:48;;;;;;;3.33;1.43;;;8.00;91.90;;;;;;5020586;28;20484;-47
2022/04/08 03:53:15;;;;;;;11.70;1.60;;;8.00;92.10;;;;;;5021110;28;20486;-48
2022/04/08 03:55:42;;;;;;;7.73;1.60;;;8.00;92.20;;;;;;5040164;28;20499;-47
2022/04/08 03:58:10;;;;;;;4.70;1.30;;;7.90;92.30;;;;;;5019488;28;20533;-47
2022/04/08 04:00:38;;;;;;;16.20;2.23;;;7.90;92.20;;;;;;5030868;28;20483;-47
2022/04/08 04:03:04;;;;;;;11.07;1.93;;;7.90;92.40;;;;;;5031434;28;20482;-48
2022/04/08 04:05:34;;;;;;;5.57;1.50;;;7.90;92.50;;;;;;5038858;28;20482;-47
2022/04/08 04:08:01;;;;;;;21.10;2.40;;;7.90;92.40;;;;;;5041182;28;20470;-47
2022/04/08 04:10:28;;;;;;;5.30;1.90;;;7.90;92.60;;;;;;5037116;28;20487;-47
2022/04/08 04:12:54;;;;;;;7.07;2.20;;;8.00;92.60;;;;;;5030458;28;20480;-47
2022/04/08 04:15:21;;;;;;;18.23;2.90;;;8.00;92.60;;;;;;5019386;28;20477;-46
2022/04/08 04:17:49;;;;;;;3.60;1.37;;;8.00;92.60;;;;;;5025887;28;20982;-47
2022/04/08 04:20:16;;;;;;;9.10;2.40;;;8.00;92.70;;;;;;5020534;28;20499;-47
2022/04/08 04:22:43;;;;;;;7.63;2.30;;;7.90;92.90;;;;;;5020263;28;20851;-46
2022/04/08 04:25:10;;;;;;;3.83;1.90;;;7.80;92.90;;;;;;5019420;28;21111;-48
2022/04/08 04:27:36;;;;;;;17.60;3.03;;;7.90;92.90;;;;;;5020769;28;20495;-48
2022/04/08 04:30:03;;;;;;;22.60;2.70;;;8.00;93.00;;;;;;5020766;28;20500;-47
2022/04/08 04:32:30;;;;;;;7.53;1.57;;;8.00;93.00;;;;;;5029356;28;20475;-48
2022/04/08 04:35:06;;;;;;;9.23;1.90;;;7.90;92.80;;;;;;5037766;28;20963;-47
2022/04/08 04:37:33;;;;;;;8.50;2.50;;;8.00;93.10;;;;;;5027897;28;20515;-47
2022/04/08 04:39:59;;;;;;;4.03;1.40;;;8.10;93.00;;;;;;5040498;28;20485;-46
2022/04/08 04:42:27;;;;;;;5.30;1.50;;;8.10;92.90;;;;;;5039910;28;20479;-46
2022/04/08 04:44:54;;;;;;;14.10;2.50;;;8.20;93.20;;;;;;5039494;28;20540;-46
2022/04/08 04:47:21;;;;;;;7.10;2.03;;;8.10;93.00;;;;;;5040825;28;20887;-47
2022/04/08 04:49:48;;;;;;;4.97;1.63;;;8.10;92.90;;;;;;5038730;28;20490;-46
2022/04/08 04:52:16;;;;;;;6.00;2.30;;;8.20;92.90;;;;;;5024236;28;20511;-46
2022/04/08 04:54:43;;;;;;;6.10;1.60;;;8.20;92.80;;;;;;5038486;28;20491;-45
2022/04/08 04:57:10;;;;;;;13.00;1.50;;;8.30;92.90;;;;;;5036346;28;20898;-46
2022/04/08 04:59:37;;;;;;;6.00;1.20;;;8.30;92.80;;;;;;5026012;28;20489;-47
2022/04/08 05:02:04;;;;;;;5.80;1.67;;;8.30;92.90;;;;;;5023382;28;20532;-47
2022/04/08 05:04:31;;;;;;;5.80;2.03;;;8.40;93.00;;;;;;5018491;28;20492;-47
2022/04/08 05:06:57;;;;;;;15.23;1.97;;;8.40;93.00;;;;;;5019268;28;20856;-46
2022/04/08 05:09:25;;;;;;;6.50;2.40;;;8.30;92.80;;;;;;5020648;28;20524;-46
2022/04/08 05:11:52;;;;;;;4.93;1.57;;;8.40;93.00;;;;;;5021502;28;20851;-47
2022/04/08 05:14:22;;;;;;;11.00;1.53;;;8.40;93.00;;;;;;5020041;28;20689;-47
2022/04/08 05:16:49;;;;;;;5.47;2.83;;;8.40;93.00;;;;;;5020756;28;20485;-46
2022/04/08 05:19:16;;;;;;;2.57;0.90;;;8.40;93.10;;;;;;5019607;28;20574;-48
2022/04/08 05:21:43;;;;;;;3.77;1.27;;;8.40;93.10;;;;;;5020898;28;20482;-47
2022/04/08 05:24:10;;;;;;;3.50;0.87;;;8.40;93.00;;;;;;5019835;28;20484;-47
2022/04/08 05:26:38;;;;;;;7.10;2.60;;;8.40;92.90;;;;;;5021250;28;20485;-48
2022/04/08 05:29:05;;;;;;;4.67;1.73;;;8.40;93.00;;;;;;5053445;28;20464;-47
2022/04/08 05:31:31;;;;;;;4.47;1.60;;;8.50;93.10;;;;;;5045639;28;20470;-49
2022/04/08 05:33:58;;;;;;;3.43;1.20;;;8.50;92.90;;;;;;5028646;28;21306;-45
2022/04/08 05:36:25;;;;;;;6.50;2.07;;;8.50;92.90;;;;;;5029483;28;20484;-46
2022/04/08 05:38:51;;;;;;;13.27;2.60;;;8.60;93.00;;;;;;5048478;28;21659;-46
2022/04/08 05:41:18;;;;;;;5.37;1.80;;;;;;;;;;5040166;28;20476;-45
2022/04/08 05:43:46;;;;;;;3.23;1.73;;;8.60;93.50;;;;;;5029384;28;20499;-46
2022/04/08 05:46:13;;;;;;;9.43;2.53;;;8.60;92.90;;;;;;5020937;28;20498;-46
2022/04/08 05:48:40;;;;;;;8.50;1.53;;;8.60;93.00;;;;;;5052400;28;20489;-47
2022/04/08 05:51:07;;;;;;;8.00;1.83;;;8.70;92.90;;;;;;5062379;28;20485;-46
2022/04/08 05:53:34;;;;;;;5.47;2.23;;;8.70;92.70;;;;;;5047111;28;20497;-46
2022/04/08 05:56:02;;;;;;;5.20;1.17;;;8.70;92.60;;;;;;5041386;28;20533;-46
2022/04/08 05:58:29;;;;;;;5.67;1.17;;;8.80;92.60;;;;;;5039857;28;20571;-46
2022/04/08 06:00:57;;;;;;;6.03;2.10;;;8.80;93.00;;;;;;5035141;28;20491;-46
2022/04/08 06:03:24;;;;;;;4.90;2.27;;;8.90;92.50;;;;;;5040846;28;21694;-47
2022/04/08 06:05:50;;;;;;;9.27;2.47;;;8.90;92.80;;;;;;5039410;28;20957;-47
2022/04/08 06:08:17;;;;;;;6.00;1.60;;;8.90;92.50;;;;;;5040520;28;20848;-47
2022/04/08 06:10:44;;;;;;;6.10;1.73;;;9.00;92.50;;;;;;5046551;28;20475;-47
2022/04/08 06:13:10;;;;;;;10.30;2.03;;;9.10;92.40;;;;;;5056453;28;21088;-52
2022/04/08 06:15:37;;;;;;;6.40;1.70;;;9.00;92.40;;;;;;5059352;28;21116;-47
2022/04/08 06:18:07;;;;;;;4.10;2.20;;;9.10;92.60;;;;;;5060502;28;20535;-47
2022/04/08 06:20:34;;;;;;;6.33;1.77;;;9.10;92.70;;;;;;5026465;28;20477;-47
2022/04/08 06:23:01;;;;;;;12.33;2.43;;;9.10;92.70;;;;;;5047054;28;20484;-47
2022/04/08 06:25:29;;;;;;;12.10;2.13;;;9.10;92.30;;;;;;5035907;28;20850;-50
2022/04/08 06:27:57;;;;;;;6.43;1.30;;;9.20;92.50;;;;;;5023236;28;20882;-47
2022/04/08 06:30:25;;;;;;;10.23;2.17;;;9.10;92.30;;;;;;5034314;28;20590;-47
2022/04/08 06:32:51;;;;;;;13.20;2.97;;;9.00;91.70;;;;;;5033082;28;20885;-47
2022/04/08 06:35:20;;;;;;;8.50;2.50;;;9.10;92.30;;;;;;5040726;28;20481;-47
2022/04/08 06:37:46;;;;;;;5.40;1.40;;;9.00;91.90;;;;;;5040712;28;20475;-47
2022/04/08 06:40:13;;;;;;;5.70;1.80;;;9.10;92.20;;;;;;5040246;28;20526;-48
2022/04/08 06:42:40;;;;;;;6.80;2.03;;;9.10;92.30;;;;;;5036325;28;21071;-47
2022/04/08 06:45:08;;;;;;;6.57;1.30;;;9.10;92.10;;;;;;5048257;28;20476;-47
2022/04/08 06:47:35;;;;;;;7.30;2.30;;;9.00;92.40;;;;;;5022573;28;20488;-47
2022/04/08 06:50:02;;;;;;;9.60;2.80;;;9.00;92.50;;;;;;5019668;28;20478;-47
2022/04/08 06:52:30;;;;;;;4.10;1.90;;;9.00;92.50;;;;;;5021293;28;21007;-47
2022/04/08 06:54:57;;;;;;;8.90;2.53;;;9.00;92.30;;;;;;5020751;28;20540;-47
2022/04/08 06:57:23;;;;;;;5.33;1.97;;;9.00;92.40;;;;;;5050327;28;20498;-48
2022/04/08 06:59:50;;;;;;;8.80;1.63;;;9.00;92.60;;;;;;5020580;28;20564;-47
2022/04/08 07:02:16;;;;;;;15.10;3.60;;;9.00;92.80;;;;;;5035256;28;20709;-47
2022/04/08 07:04:43;;;;;;;6.90;2.80;;;8.90;93.20;;;;;;5036659;28;20491;-47
2022/04/08 07:07:10;;;;;;;5.27;1.93;;;9.00;93.30;;;;;;5042892;28;20491;-46
2022/04/08 07:09:38;;;;;;;28.57;2.90;;;8.90;93.40;;;;;;5038009;28;20498;-46
2022/04/08 07:12:05;;;;;;;7.73;2.30;;;8.70;93.40;;;;;;5034769;28;20550;-46
2022/04/08 07:14:31;;;;;;;3.73;2.00;;;8.80;93.50;;;;;;5003368;28;20481;-51
2022/04/08 07:16:58;;;;;;;10.40;2.30;;;8.70;94.00;;;;;;5024587;28;20479;-46
2022/04/08 07:19:25;;;;;;;5.80;1.40;;;8.70;94.40;;;;;;5007655;28;20490;-47
2022/04/08 07:21:52;;;;;;;6.57;2.13;;;8.80;94.50;;;;;;5017409;28;20479;-47
2022/04/08 07:24:18;;;;;;;18.67;2.10;;;8.70;94.50;;;;;;5019118;28;20473;-47
2022/04/08 07:26:46;;;;;;;6.83;1.80;;;8.70;94.30;;;;;;5025753;28;20565;-46
2022/04/08 07:29:13;;;;;;;7.23;2.67;;;8.60;94.90;;;;;;5020026;28;20589;-47
2022/04/08 07:31:40;;;;;;;15.70;1.93;;;8.60;94.70;;;;;;5040878;28;21059;-48
2022/04/08 07:34:06;;;;;;;7.27;2.30;;;8.70;94.90;;;;;;5046512;28;20494;-48
2022/04/08 07:36:33;;;;;;;5.40;1.60;;;8.70;95.00;;;;;;5046441;28;20475;-46
2022/04/08 07:39:00;;;;;;;10.23;2.00;;;8.60;95.40;;;;;;5042113;28;21231;-47
2022/04/08 07:41:26;;;;;;;2.43;1.20;;;8.50;94.70;;;;;;5046149;28;20490;-46
2022/04/08 07:43:55;;;;;;;4.47;1.50;;;8.50;94.80;;;;;;5042326;28;20478;-47
2022/04/08 07:46:22;;;;;;;19.63;3.20;;;8.50;95.70;;;;;;5040286;28;20933;-46
2022/04/08 07:48:48;;;;;;;11.63;1.47;;;8.40;95.50;;;;;;5051665;28;20479;-47
2022/04/08 07:51:15;;;;;;;5.30;2.20;;;8.50;96.00;;;;;;5044646;28;20504;-47
2022/04/08 07:53:42;;;;;;;10.93;2.13;;;8.50;96.10;;;;;;5047990;28;21008;-47
2022/04/08 07:56:09;;;;;;;6.83;2.27;;;8.60;96.30;;;;;;5042049;28;20490;-47
2022/04/08 07:58:35;;;;;;;4.07;1.03;;;8.60;96.80;;;;;;5044511;28;21637;-48
2022/04/08 08:01:03;;;;;;;4.87;2.17;;;8.60;96.70;;;;;;5048085;28;20472;-48
2022/04/08 08:03:32;;;;;;;8.13;1.93;;;8.60;96.10;;;;;;5046595;28;20482;-48
2022/04/08 08:05:58;;;;;;;8.57;2.57;;;8.50;96.00;;;;;;5045689;28;20485;-47
2022/04/08 08:08:25;;;;;;;5.93;2.17;;;8.60;96.70;;;;;;5046322;28;20486;-48
2022/04/08 08:10:51;;;;;;;4.20;1.50;;;8.60;96.40;;;;;;5045165;28;21046;-49
2022/04/08 08:13:18;;;;;;;6.37;1.30;;;8.50;96.50;;;;;;5065702;28;20992;-48
2022/04/08 08:15:45;;;;;;;11.00;1.77;;;8.40;95.70;;;;;;5044812;28;21272;-47
2022/04/08 08:18:13;;;;;;;4.10;1.70;;;8.40;96.10;;;;;;5034909;28;20470;-48
2022/04/08 08:20:42;;;;;;;11.23;2.00;;;8.30;96.40;;;;;;5046286;28;20480;-48
2022/04/08 08:23:08;;;;;;;8.03;1.73;;;8.40;96.00;;;;;;5047700;28;20845;-48
2022/04/08 08:25:35;;;;;;;4.73;1.70;;;8.50;95.80;;;;;;5046192;28;20564;-48
2022/04/08 08:28:03;;;;;;;4.40;1.40;;;8.40;96.70;;;;;;5045993;28;20485;-48
2022/04/08 08:30:31;;;;;;;16.03;1.70;;;8.40;96.10;;;;;;5047516;28;20494;-47
2022/04/08 08:32:59;;;;;;;12.30;2.30;;;8.50;96.50;;;;;;5047563;28;20522;-48
2022/04/08 08:35:29;;;;;;;7.67;1.70;;;8.40;96.20;;;;;;5046024;28;20505;-49
2022/04/08 08:37:56;;;;;;;12.53;2.17;;;8.40;95.90;;;;;;5046901;28;20491;-48
2022/04/08 08:40:25;;;;;;;2.57;1.50;;;8.40;95.80;;;;;;5046265;28;20486;-49
2022/04/08 08:42:53;;;;;;;3.13;1.23;;;8.50;96.10;;;;;;5045682;28;20481;-48
2022/04/08 08:45:20;;;;;;;10.20;1.50;;;8.40;96.40;;;;;;5039789;28;21294;-47
2022/04/08 08:47:48;;;;;;;2.17;1.27;;;8.40;96.80;;;;;;5049034;28;20485;-48
2022/04/08 08:50:18;;;;;;;2.00;1.00;;;8.30;96.20;;;;;;5045275;28;20474;-48
2022/04/08 08:52:50;;;;;;;3.80;1.90;;;8.20;96.40;;;;;;5047825;28;21533;-47
2022/04/08 08:55:18;;;;;;;3.17;1.73;;;8.10;96.90;;;;;;5043530;28;20537;-48
2022/04/08 08:57:47;;;;;;;3.70;1.97;;;8.20;97.10;;;;;;5004455;28;21405;-47
2022/04/08 09:00:16;;;;;;;5.10;1.70;;;8.20;96.70;;;;;;5032945;28;20481;-48
2022/04/08 09:02:44;;;;;;;2.20;1.40;;;8.40;97.00;;;;;;5022151;28;20500;-47
2022/04/08 09:05:15;;;;;;;11.00;2.03;;;8.50;96.40;;;;;;5032744;28;20544;-47
2022/04/08 09:07:42;;;;;;;5.00;1.67;;;8.60;96.10;;;;;;5047450;28;20481;-48
2022/04/08 09:10:11;;;;;;;3.47;1.53;;;8.70;95.90;;;;;;5045998;28;20486;-48
2022/04/08 09:12:37;;;;;;;7.50;1.90;;;8.80;95.90;;;;;;5063872;28;20929;-48
2022/04/08 09:15:09;;;;;;;2.87;1.10;;;8.90;96.00;;;;;;5045385;28;20663;-48
2022/04/08 09:17:37;;;;;;;2.27;1.10;;;9.00;95.30;;;;;;5042684;28;20801;-48
2022/04/08 09:20:06;;;;;;;4.10;1.20;;;9.00;95.10;;;;;;5056404;28;20919;-47
2022/04/08 09:22:36;;;;;;;3.50;1.80;;;9.00;95.20;;;;;;5028227;28;20825;-48
2022/04/08 09:25:10;;;;;;;5.83;1.53;;;9.00;95.20;;;;;;5024789;28;20510;-47
2022/04/08 09:27:39;;;;;;;2.37;1.40;;;9.10;94.90;;;;;;5025565;28;21027;-47
2022/04/08 09:30:09;;;;;;;3.47;1.40;;;9.10;94.50;;;;;;5027470;28;20495;-47
2022/04/08 09:32:36;;;;;;;8.23;1.53;;;9.10;95.10;;;;;;5025496;28;20870;-47
2022/04/08 09:35:04;;;;;;;3.87;1.50;;;9.20;95.20;;;;;;5023891;28;20476;-48
2022/04/08 09:37:31;;;;;;;2.20;1.50;;;9.20;95.30;;;;;;5009630;28;20582;-47
2022/04/08 09:39:59;;;;;;;4.10;1.40;;;9.20;95.30;;;;;;5027873;28;20481;-48
2022/04/08 09:42:44;;;;;;;6.10;1.33;;;9.00;94.60;;;;;;5026224;28;20491;-47
2022/04/08 09:45:11;;;;;;;4.33;1.23;;;8.90;94.70;;;;;;5039350;28;20486;-47
2022/04/08 09:47:38;;;;;;;1.50;0.77;;;8.80;94.80;;;;;;5048598;28;20892;-47
2022/04/08 09:50:05;;;;;;;3.20;0.80;;;8.70;94.50;;;;;;5045292;28;20996;-47
2022/04/08 09:52:32;;;;;;;9.60;1.30;;;8.60;95.00;;;;;;5062116;28;20499;-48
2022/04/08 09:55:03;;;;;;;1.80;0.90;;;8.60;95.10;;;;;;5050214;28;21832;-48
2022/04/08 09:57:36;;;;;;;1.83;0.90;;;8.50;95.40;;;;;;5045360;28;21051;-48
2022/04/08 10:00:06;;;;;;;2.00;0.97;;;8.60;95.20;;;;;;5044944;28;20912;-47
2022/04/08 10:02:40;;;;;;;2.03;0.90;;;8.60;95.30;;;;;;5059091;28;20814;-48
2022/04/08 10:05:10;;;;;;;3.73;0.83;;;8.80;95.10;;;;;;5040195;28;20483;-48
2022/04/08 10:07:39;;;;;;;3.20;0.80;;;9.00;95.30;;;;;;5040649;28;20515;-48
2022/04/08 10:10:15;;;;;;;7.20;2.23;;;8.90;94.60;;;;;;5046967;28;20470;-47
2022/04/08 10:12:51;;;;;;;2.47;0.80;;;8.80;94.10;;;;;;5046587;28;20495;-48
2022/04/08 10:15:26;;;;;;;2.10;0.87;;;8.70;94.40;;;;;;5045901;28;20800;-47
2022/04/08 10:17:57;;;;;;;1.70;0.70;;;8.70;94.60;;;;;;5049521;28;20476;-47
2022/04/08 10:20:24;;;;;;;1.50;0.80;;;8.70;94.70;;;;;;5048073;28;20538;-47
2022/04/08 10:22:52;;;;;;;11.90;1.30;;;8.50;94.30;;;;;;5049822;28;20547;-47
2022/04/08 10:25:22;;;;;;;1.70;0.93;;;8.20;94.50;;;;;;5047016;28;20493;-46
2022/04/08 10:27:59;;;;;;;1.80;0.70;;;8.00;94.10;;;;;;5063424;28;20497;-47
2022/04/08 10:30:27;;;;;;;1.60;0.80;;;7.90;94.60;;;;;;5050116;28;20579;-47
2022/04/08 10:33:00;;;;;;;1.40;0.50;;;7.90;95.00;;;;;;5056760;28;20485;-47
2022/04/08 10:35:27;;;;;;;1.60;0.70;;;7.90;95.20;;;;;;5056968;28;20484;-47
2022/04/08 10:37:58;;;;;;;2.33;0.80;;;7.90;95.70;;;;;;5061281;28;20485;-47
2022/04/08 10:40:35;;;;;;;1.57;0.70;;;7.90;95.40;;;;;;5046449;28;20467;-47
2022/04/08 10:43:03;;;;;;;1.67;0.70;;;7.90;95.30;;;;;;5031294;28;20942;-47
2022/04/08 10:45:31;;;;;;;1.60;0.73;;;8.00;95.70;;;;;;5044473;28;20818;-47
2022/04/08 10:48:03;;;;;;;1.53;0.80;;;8.10;95.80;;;;;;5047841;28;20565;-47
2022/04/08 10:50:31;;;;;;;2.03;1.67;;;8.10;95.40;;;;;;5065716;28;20486;-47
2022/04/08 10:53:06;;;;;;;1.60;0.70;;;8.20;96.00;;;;;;5045947;28;20525;-47
2022/04/08 10:55:33;;;;;;;3.60;0.70;;;8.30;95.90;;;;;;5043319;28;20474;-47
2022/04/08 10:58:00;;;;;;;1.50;0.70;;;8.30;95.60;;;;;;5042889;28;20628;-47
2022/04/08 11:00:27;;;;;;;1.50;0.70;;;8.20;94.40;;;;;;5043558;28;20840;-47
2022/04/08 11:02:56;;;;;;;3.77;0.70;;;7.90;94.60;;;;;;5042384;28;20617;-47
2022/04/08 11:05:23;;;;;;;1.50;0.60;;;7.90;95.20;;;;;;5046811;28;20510;-47
2022/04/08 11:07:52;;;;;;;2.10;0.60;;;;;;;;;;5045660;28;20503;-47
2022/04/08 11:10:20;;;;;;;1.50;0.63;;;7.90;96.00;;;;;;5045557;28;21026;-47
2022/04/08 11:12:49;;;;;;;1.40;0.53;;;7.80;95.30;;;;;;5037842;28;20961;-47
2022/04/08 11:15:19;;;;;;;1.93;0.60;;;7.50;95.30;;;;;;5071538;28;20478;-47
2022/04/08 11:17:48;;;;;;;1.40;0.50;;;7.50;95.90;;;;;;5018780;28;20473;-47
2022/04/08 11:20:19;;;;;;;2.10;0.60;;;7.40;95.70;;;;;;5037833;28;20472;-47
2022/04/08 11:22:50;;;;;;;5.10;0.80;;;7.50;96.10;;;;;;5043263;28;20470;-47
2022/04/08 11:25:22;;;;;;;1.60;0.60;;;7.60;95.90;;;;;;5050874;28;21058;-47
2022/04/08 11:28:09;;;;;;;1.50;0.63;;;7.60;95.80;;;;;;5059565;28;20487;-47
2022/04/08 11:30:39;;;;;;;1.40;0.60;;;7.70;95.70;;;;;;5045113;28;20808;-47
2022/04/08 11:33:13;;;;;;;2.03;1.10;;;7.80;95.50;;;;;;5045619;28;20486;-47
2022/04/08 11:35:42;;;;;;;1.80;0.60;;;7.90;95.70;;;;;;5048242;28;20568;-47
2022/04/08 11:38:13;;;;;;;1.80;0.60;;;8.00;95.80;;;;;;5045343;28;20482;-47
2022/04/08 11:40:40;;;;;;;5.30;0.90;;;7.90;95.40;;;;;;5042289;28;20482;-47
2022/04/08 11:43:09;;;;;;;1.60;0.80;;;7.90;95.60;;;;;;5058057;28;21288;-47
2022/04/08 11:45:37;;;;;;;1.50;0.70;;;8.00;95.70;;;;;;5054061;28;20520;-47
2022/04/08 11:48:08;;;;;;;2.53;0.70;;;8.00;95.80;;;;;;5045794;28;20786;-47
2022/04/08 11:50:37;;;;;;;5.93;3.20;;;7.90;95.30;;;;;;5054202;28;20495;-48
2022/04/08 11:53:05;;;;;;;3.73;0.90;;;8.00;96.20;;;;;;5054210;28;21172;-47
2022/04/08 11:55:35;;;;;;;1.60;0.57;;;8.00;95.90;;;;;;5045364;28;20590;-47
2022/04/08 11:58:01;;;;;;;1.97;0.80;;;8.00;95.90;;;;;;5034718;28;20597;-47
2022/04/08 12:00:30;;;;;;;1.40;0.60;;;8.00;95.80;;;;;;5031016;28;20481;-47
2022/04/08 12:03:00;;;;;;;1.50;0.60;;;8.00;95.60;;;;;;5038395;28;20490;-47
2022/04/08 12:05:29;;;;;;;2.20;0.80;;;8.00;95.80;;;;;;5035896;28;20484;-48
2022/04/08 12:07:59;;;;;;;3.73;0.80;;;7.90;95.90;;;;;;5025545;28;20935;-48
2022/04/08 12:10:28;;;;;;;1.53;0.70;;;7.90;96.20;;;;;;5057337;28;20901;-47
2022/04/08 12:12:55;;;;;;;1.60;0.73;;;7.90;96.20;;;;;;5036057;28;20475;-47
2022/04/08 12:15:22;;;;;;;19.47;1.33;;;7.90;96.10;;;;;;5035586;28;21360;-48
2022/04/08 12:17:51;;;;;;;3.53;1.37;;;7.80;96.10;;;;;;5033555;28;20596;-46
2022/04/08 12:20:20;;;;;;;1.60;0.90;;;7.80;96.40;;;;;;5034865;28;21004;-47
2022/04/08 12:22:50;;;;;;;1.50;0.70;;;7.70;96.00;;;;;;5046097;28;20481;-46
2022/04/08 12:25:19;;;;;;;3.40;0.80;;;7.60;96.20;;;;;;5047763;28;20494;-46
2022/04/08 12:27:54;;;;;;;14.93;1.53;;;7.50;96.00;;;;;;5063735;28;20509;-47
2022/04/08 12:30:27;;;;;;;5.20;0.77;;;7.50;96.20;;;;;;5064005;28;21164;-46
2022/04/08 12:32:54;;;;;;;2.70;1.80;;;;;;;;;;5043952;28;20597;-46
2022/04/08 12:35:21;;;;;;;2.63;1.70;;;7.50;96.80;;;;;;5030774;28;20477;-47
2022/04/08 12:37:47;;;;;;;3.00;1.00;;;7.40;96.70;;;;;;5045200;28;20635;-47
2022/04/08 12:40:16;;;;;;;1.40;0.70;;;;;;;;;;5037584;28;20486;-46
2022/04/08 12:42:43;;;;;;;1.60;0.90;;;7.40;97.20;;;;;;5021840;28;20545;-47
2022/04/08 12:45:12;;;;;;;1.40;0.70;;;7.50;97.30;;;;;;5020439;28;21051;-46
2022/04/08 12:47:39;;;;;;;3.23;1.00;;;7.50;97.20;;;;;;5021894;28;20493;-47
2022/04/08 12:50:10;;;;;;;1.70;0.80;;;7.50;97.30;;;;;;5040047;28;20538;-47
2022/04/08 12:52:37;;;;;;;1.80;1.07;;;7.50;97.20;;;;;;5047941;28;20943;-47
2022/04/08 12:55:07;;;;;;;15.13;1.40;;;7.50;96.80;;;;;;5047403;28;20488;-47
2022/04/08 12:57:36;;;;;;;1.67;0.90;;;7.50;97.00;;;;;;5034457;28;20485;-51
2022/04/08 13:00:11;;;;;;;2.43;2.13;;;7.50;97.20;;;;;;5038262;28;20576;-48
2022/04/08 13:02:43;;;;;;;7.10;2.97;;;7.60;97.30;;;;;;5042802;28;20573;-46